sensor_id;sensor_type;location;lat;lon;timestamp;P1;durP1;ratioP1;P2;durP2;ratioP2
38972;SDS011;25333;50.762;4.470;2024-03-07T00:00:01;5.65;;;4.53;;
38972;SDS011;25333;50.762;4.470;2024-03-07T00:02:45;6.15;;;3.70;;
38972;SDS011;25333;50.762;4.470;2024-03-07T00:05:15;6.63;;;4.30;;
38972;SDS011;25333;50.762;4.470;2024-03-07T00:07:41;7.65;;;4.25;;
38972;SDS011;25333;50.762;4.470;2024-03-07T00:10:07;6.35;;;4.25;;
38972;SDS011;25333;50.762;4.470;2024-03-07T00:12:34;6.13;;;3.70;;
38972;SDS011;25333;50.762;4.470;2024-03-07T00:15:01;5.38;;;3.40;;
38972;SDS011;25333;50.762;4.470;2024-03-07T00:17:28;6.07;;;3.72;;
38972;SDS011;25333;50.762;4.470;2024-03-07T00:19:53;4.85;;;3.50;;
38972;SDS011;25333;50.762;4.470;2024-03-07T00:22:19;5.18;;;3.47;;
38972;SDS011;25333;50.762;4.470;2024-03-07T00:24:45;5.60;;;3.28;;
38972;SDS011;25333;50.762;4.470;2024-03-07T00:27:12;8.05;;;3.95;;
38972;SDS011;25333;50.762;4.470;2024-03-07T00:29:40;6.90;;;3.55;;
38972;SDS011;25333;50.762;4.470;2024-03-07T00:32:06;4.97;;;4.15;;
38972;SDS011;25333;50.762;4.470;2024-03-07T00:34:32;7.63;;;4.53;;
38972;SDS011;25333;50.762;4.470;2024-03-07T00:36:59;5.97;;;4.05;;
38972;SDS011;25333;50.762;4.470;2024-03-07T00:39:25;7.28;;;5.07;;
38972;SDS011;25333;50.762;4.470;2024-03-07T00:41:51;5.32;;;4.20;;
38972;SDS011;25333;50.762;4.470;2024-03-07T00:44:17;5.50;;;4.43;;
38972;SDS011;25333;50.762;4.470;2024-03-07T00:46:42;10.63;;;4.28;;
38972;SDS011;25333;50.762;4.470;2024-03-07T00:49:08;7.30;;;4.75;;
38972;SDS011;25333;50.762;4.470;2024-03-07T00:51:34;7.07;;;4.68;;
38972;SDS011;25333;50.762;4.470;2024-03-07T00:54:00;6.13;;;4.20;;
38972;SDS011;25333;50.762;4.470;2024-03-07T00:56:26;7.05;;;4.97;;
38972;SDS011;25333;50.762;4.470;2024-03-07T00:58:52;8.35;;;5.53;;
38972;SDS011;25333;50.762;4.470;2024-03-07T01:01:17;8.20;;;6.70;;
38972;SDS011;25333;50.762;4.470;2024-03-07T01:03:46;7.25;;;5.28;;
38972;SDS011;25333;50.762;4.470;2024-03-07T01:06:12;7.90;;;5.63;;
38972;SDS011;25333;50.762;4.470;2024-03-07T01:08:38;7.10;;;5.03;;
38972;SDS011;25333;50.762;4.470;2024-03-07T01:11:04;7.95;;;5.85;;
38972;SDS011;25333;50.762;4.470;2024-03-07T01:13:40;7.60;;;5.78;;
38972;SDS011;25333;50.762;4.470;2024-03-07T01:16:06;8.47;;;5.83;;
38972;SDS011;25333;50.762;4.470;2024-03-07T01:18:31;8.47;;;6.07;;
38972;SDS011;25333;50.762;4.470;2024-03-07T01:20:58;9.98;;;6.30;;
38972;SDS011;25333;50.762;4.470;2024-03-07T01:23:24;9.40;;;7.50;;
38972;SDS011;25333;50.762;4.470;2024-03-07T01:25:50;11.05;;;7.90;;
38972;SDS011;25333;50.762;4.470;2024-03-07T01:28:16;11.27;;;8.00;;
38972;SDS011;25333;50.762;4.470;2024-03-07T01:30:43;11.35;;;8.20;;
38972;SDS011;25333;50.762;4.470;2024-03-07T01:33:09;9.48;;;7.90;;
38972;SDS011;25333;50.762;4.470;2024-03-07T01:35:34;10.90;;;8.23;;
38972;SDS011;25333;50.762;4.470;2024-03-07T01:38:01;13.13;;;8.13;;
38972;SDS011;25333;50.762;4.470;2024-03-07T01:40:28;9.43;;;7.47;;
38972;SDS011;25333;50.762;4.470;2024-03-07T01:42:54;11.90;;;8.27;;
38972;SDS011;25333;50.762;4.470;2024-03-07T01:45:20;13.60;;;9.73;;
38972;SDS011;25333;50.762;4.470;2024-03-07T01:47:45;15.68;;;11.48;;
38972;SDS011;25333;50.762;4.470;2024-03-07T01:50:11;14.40;;;10.10;;
38972;SDS011;25333;50.762;4.470;2024-03-07T01:52:39;17.38;;;11.98;;
38972;SDS011;25333;50.762;4.470;2024-03-07T01:55:06;16.58;;;10.95;;
38972;SDS011;25333;50.762;4.470;2024-03-07T01:57:33;13.65;;;9.00;;
38972;SDS011;25333;50.762;4.470;2024-03-07T02:00:00;20.20;;;11.95;;
38972;SDS011;25333;50.762;4.470;2024-03-07T02:02:31;21.98;;;12.80;;
38972;SDS011;25333;50.762;4.470;2024-03-07T02:04:57;15.75;;;11.68;;
38972;SDS011;25333;50.762;4.470;2024-03-07T02:07:23;18.90;;;14.00;;
38972;SDS011;25333;50.762;4.470;2024-03-07T02:09:49;23.87;;;15.43;;
38972;SDS011;25333;50.762;4.470;2024-03-07T02:12:14;21.83;;;14.30;;
38972;SDS011;25333;50.762;4.470;2024-03-07T02:14:40;22.80;;;15.05;;
38972;SDS011;25333;50.762;4.470;2024-03-07T02:17:06;25.60;;;16.15;;
38972;SDS011;25333;50.762;4.470;2024-03-07T02:19:32;24.92;;;16.17;;
38972;SDS011;25333;50.762;4.470;2024-03-07T02:21:58;25.60;;;16.87;;
38972;SDS011;25333;50.762;4.470;2024-03-07T02:24:24;27.55;;;17.42;;
38972;SDS011;25333;50.762;4.470;2024-03-07T02:26:50;31.23;;;19.53;;
38972;SDS011;25333;50.762;4.470;2024-03-07T02:29:17;29.63;;;18.67;;
38972;SDS011;25333;50.762;4.470;2024-03-07T02:31:44;29.15;;;20.40;;
38972;SDS011;25333;50.762;4.470;2024-03-07T02:34:10;29.45;;;19.27;;
38972;SDS011;25333;50.762;4.470;2024-03-07T02:36:36;30.67;;;19.45;;
38972;SDS011;25333;50.762;4.470;2024-03-07T02:39:02;35.88;;;23.10;;
38972;SDS011;25333;50.762;4.470;2024-03-07T02:41:28;34.85;;;23.33;;
38972;SDS011;25333;50.762;4.470;2024-03-07T02:43:53;29.20;;;20.45;;
38972;SDS011;25333;50.762;4.470;2024-03-07T02:46:19;30.67;;;20.47;;
38972;SDS011;25333;50.762;4.470;2024-03-07T02:48:45;33.15;;;20.27;;
38972;SDS011;25333;50.762;4.470;2024-03-07T02:51:11;35.22;;;22.13;;
38972;SDS011;25333;50.762;4.470;2024-03-07T02:53:36;30.83;;;20.63;;
38972;SDS011;25333;50.762;4.470;2024-03-07T02:56:03;39.33;;;23.00;;
38972;SDS011;25333;50.762;4.470;2024-03-07T02:58:33;33.63;;;22.38;;
38972;SDS011;25333;50.762;4.470;2024-03-07T03:00:59;34.03;;;22.73;;
38972;SDS011;25333;50.762;4.470;2024-03-07T03:03:28;34.20;;;21.85;;
38972;SDS011;25333;50.762;4.470;2024-03-07T03:05:57;39.28;;;25.02;;
38972;SDS011;25333;50.762;4.470;2024-03-07T03:08:23;42.15;;;24.85;;
38972;SDS011;25333;50.762;4.470;2024-03-07T03:10:49;37.97;;;27.50;;
38972;SDS011;25333;50.762;4.470;2024-03-07T03:13:18;40.65;;;24.27;;
38972;SDS011;25333;50.762;4.470;2024-03-07T03:15:44;36.70;;;23.93;;
38972;SDS011;25333;50.762;4.470;2024-03-07T03:18:09;39.17;;;26.33;;
38972;SDS011;25333;50.762;4.470;2024-03-07T03:20:35;40.45;;;26.38;;
38972;SDS011;25333;50.762;4.470;2024-03-07T03:23:04;41.05;;;26.08;;
38972;SDS011;25333;50.762;4.470;2024-03-07T03:25:38;37.10;;;25.55;;
38972;SDS011;25333;50.762;4.470;2024-03-07T03:28:07;41.92;;;27.10;;
38972;SDS011;25333;50.762;4.470;2024-03-07T03:30:39;38.70;;;27.13;;
38972;SDS011;25333;50.762;4.470;2024-03-07T03:33:08;42.10;;;26.60;;
38972;SDS011;25333;50.762;4.470;2024-03-07T03:35:34;50.85;;;28.58;;
38972;SDS011;25333;50.762;4.470;2024-03-07T03:38:00;43.55;;;26.50;;
38972;SDS011;25333;50.762;4.470;2024-03-07T03:40:26;39.40;;;26.67;;
38972;SDS011;25333;50.762;4.470;2024-03-07T03:42:52;41.05;;;25.45;;
38972;SDS011;25333;50.762;4.470;2024-03-07T03:45:18;41.92;;;25.50;;
38972;SDS011;25333;50.762;4.470;2024-03-07T03:47:44;40.55;;;27.33;;
38972;SDS011;25333;50.762;4.470;2024-03-07T03:50:11;39.17;;;26.60;;
38972;SDS011;25333;50.762;4.470;2024-03-07T03:52:40;41.75;;;26.95;;
38972;SDS011;25333;50.762;4.470;2024-03-07T03:55:06;47.92;;;27.17;;
38972;SDS011;25333;50.762;4.470;2024-03-07T03:57:36;41.13;;;26.83;;
38972;SDS011;25333;50.762;4.470;2024-03-07T04:00:05;43.42;;;28.70;;
38972;SDS011;25333;50.762;4.470;2024-03-07T04:02:41;45.97;;;27.25;;
38972;SDS011;25333;50.762;4.470;2024-03-07T04:05:11;41.65;;;27.83;;
38972;SDS011;25333;50.762;4.470;2024-03-07T04:07:38;42.20;;;27.33;;
38972;SDS011;25333;50.762;4.470;2024-03-07T04:10:04;40.90;;;25.70;;
38972;SDS011;25333;50.762;4.470;2024-03-07T04:12:37;43.63;;;29.25;;
38972;SDS011;25333;50.762;4.470;2024-03-07T04:15:08;45.08;;;27.80;;
38972;SDS011;25333;50.762;4.470;2024-03-07T04:17:37;39.70;;;27.30;;
38972;SDS011;25333;50.762;4.470;2024-03-07T04:20:03;41.67;;;28.25;;
38972;SDS011;25333;50.762;4.470;2024-03-07T04:22:31;43.55;;;26.45;;
38972;SDS011;25333;50.762;4.470;2024-03-07T04:25:02;44.75;;;29.83;;
38972;SDS011;25333;50.762;4.470;2024-03-07T06:24:01;72.15;;;45.28;;
38972;SDS011;25333;50.762;4.470;2024-03-07T06:32:57;68.13;;;44.90;;
38972;SDS011;25333;50.762;4.470;2024-03-07T06:35:49;74.57;;;45.70;;
38972;SDS011;25333;50.762;4.470;2024-03-07T06:43:54;79.97;;;47.17;;
38972;SDS011;25333;50.762;4.470;2024-03-07T07:21:05;62.90;;;40.58;;
38972;SDS011;25333;50.762;4.470;2024-03-07T07:53:01;61.75;;;38.00;;
38972;SDS011;25333;50.762;4.470;2024-03-07T09:34:12;54.80;;;33.60;;
38972;SDS011;25333;50.762;4.470;2024-03-07T09:47:33;62.70;;;35.27;;
38972;SDS011;25333;50.762;4.470;2024-03-07T09:50:25;59.78;;;36.30;;
38972;SDS011;25333;50.762;4.470;2024-03-07T09:53:25;64.97;;;37.13;;
38972;SDS011;25333;50.762;4.470;2024-03-07T09:56:31;58.17;;;34.78;;
38972;SDS011;25333;50.762;4.470;2024-03-07T10:28:20;44.80;;;30.13;;
38972;SDS011;25333;50.762;4.470;2024-03-07T10:30:46;40.33;;;28.08;;
38972;SDS011;25333;50.762;4.470;2024-03-07T10:33:15;48.40;;;32.13;;
38972;SDS011;25333;50.762;4.470;2024-03-07T10:35:42;44.83;;;29.10;;
38972;SDS011;25333;50.762;4.470;2024-03-07T10:38:11;47.28;;;28.90;;
38972;SDS011;25333;50.762;4.470;2024-03-07T10:40:38;44.03;;;27.17;;
38972;SDS011;25333;50.762;4.470;2024-03-07T10:43:09;46.15;;;28.73;;
38972;SDS011;25333;50.762;4.470;2024-03-07T10:45:55;39.78;;;27.38;;
38972;SDS011;25333;50.762;4.470;2024-03-07T10:48:26;46.40;;;30.50;;
38972;SDS011;25333;50.762;4.470;2024-03-07T10:50:58;47.63;;;29.30;;
38972;SDS011;25333;50.762;4.470;2024-03-07T10:59:38;41.38;;;26.58;;
38972;SDS011;25333;50.762;4.470;2024-03-07T11:02:49;38.00;;;27.00;;
38972;SDS011;25333;50.762;4.470;2024-03-07T11:05:18;38.22;;;26.13;;
38972;SDS011;25333;50.762;4.470;2024-03-07T11:07:45;40.70;;;24.30;;
38972;SDS011;25333;50.762;4.470;2024-03-07T11:10:16;36.75;;;24.42;;
38972;SDS011;25333;50.762;4.470;2024-03-07T11:12:43;34.28;;;24.05;;
38972;SDS011;25333;50.762;4.470;2024-03-07T11:15:10;32.20;;;22.60;;
38972;SDS011;25333;50.762;4.470;2024-03-07T11:17:44;34.03;;;23.63;;
38972;SDS011;25333;50.762;4.470;2024-03-07T11:20:19;36.45;;;23.65;;
38972;SDS011;25333;50.762;4.470;2024-03-07T11:22:49;35.33;;;22.95;;
38972;SDS011;25333;50.762;4.470;2024-03-07T11:25:18;36.53;;;22.48;;
38972;SDS011;25333;50.762;4.470;2024-03-07T11:27:56;29.13;;;20.92;;
38972;SDS011;25333;50.762;4.470;2024-03-07T11:30:31;31.70;;;21.67;;
38972;SDS011;25333;50.762;4.470;2024-03-07T11:32:57;28.52;;;17.52;;
38972;SDS011;25333;50.762;4.470;2024-03-07T11:35:33;29.48;;;19.90;;
38972;SDS011;25333;50.762;4.470;2024-03-07T11:38:02;28.95;;;19.33;;
38972;SDS011;25333;50.762;4.470;2024-03-07T11:42:56;30.53;;;21.07;;
38972;SDS011;25333;50.762;4.470;2024-03-07T11:45:25;29.65;;;21.05;;
38972;SDS011;25333;50.762;4.470;2024-03-07T11:48:00;31.90;;;20.75;;
38972;SDS011;25333;50.762;4.470;2024-03-07T11:50:32;32.05;;;21.15;;
38972;SDS011;25333;50.762;4.470;2024-03-07T11:53:00;31.42;;;19.98;;
38972;SDS011;25333;50.762;4.470;2024-03-07T11:55:40;29.77;;;20.87;;
38972;SDS011;25333;50.762;4.470;2024-03-07T11:58:19;31.23;;;19.83;;
38972;SDS011;25333;50.762;4.470;2024-03-07T12:00:51;27.48;;;19.90;;
38972;SDS011;25333;50.762;4.470;2024-03-07T12:03:20;27.93;;;20.27;;
38972;SDS011;25333;50.762;4.470;2024-03-07T12:05:49;27.65;;;19.35;;
38972;SDS011;25333;50.762;4.470;2024-03-07T12:08:16;26.23;;;20.73;;
38972;SDS011;25333;50.762;4.470;2024-03-07T12:10:42;32.30;;;21.58;;
38972;SDS011;25333;50.762;4.470;2024-03-07T12:13:12;30.38;;;20.85;;
38972;SDS011;25333;50.762;4.470;2024-03-07T12:15:42;30.50;;;19.30;;
38972;SDS011;25333;50.762;4.470;2024-03-07T12:18:09;30.13;;;19.63;;
38972;SDS011;25333;50.762;4.470;2024-03-07T12:20:41;26.20;;;18.27;;
38972;SDS011;25333;50.762;4.470;2024-03-07T12:23:11;29.13;;;19.80;;
38972;SDS011;25333;50.762;4.470;2024-03-07T12:25:38;26.70;;;18.13;;
38972;SDS011;25333;50.762;4.470;2024-03-07T12:28:05;24.85;;;17.45;;
38972;SDS011;25333;50.762;4.470;2024-03-07T12:30:37;29.63;;;19.13;;
38972;SDS011;25333;50.762;4.470;2024-03-07T12:33:14;28.83;;;19.23;;
38972;SDS011;25333;50.762;4.470;2024-03-07T12:35:42;26.23;;;18.17;;
38972;SDS011;25333;50.762;4.470;2024-03-07T12:38:08;30.20;;;18.77;;
38972;SDS011;25333;50.762;4.470;2024-03-07T12:40:40;27.95;;;19.15;;
38972;SDS011;25333;50.762;4.470;2024-03-07T12:43:16;27.55;;;18.85;;
38972;SDS011;25333;50.762;4.470;2024-03-07T12:45:45;28.48;;;19.00;;
38972;SDS011;25333;50.762;4.470;2024-03-07T12:48:13;30.38;;;18.98;;
38972;SDS011;25333;50.762;4.470;2024-03-07T12:50:39;27.55;;;19.25;;
38972;SDS011;25333;50.762;4.470;2024-03-07T12:53:06;27.85;;;18.13;;
38972;SDS011;25333;50.762;4.470;2024-03-07T12:55:37;28.48;;;19.45;;
38972;SDS011;25333;50.762;4.470;2024-03-07T12:58:07;25.45;;;17.98;;
38972;SDS011;25333;50.762;4.470;2024-03-07T13:00:34;28.52;;;20.10;;
38972;SDS011;25333;50.762;4.470;2024-03-07T13:03:10;29.17;;;20.60;;
38972;SDS011;25333;50.762;4.470;2024-03-07T13:05:36;29.67;;;20.00;;
38972;SDS011;25333;50.762;4.470;2024-03-07T13:08:05;28.00;;;20.10;;
38972;SDS011;25333;50.762;4.470;2024-03-07T13:10:37;31.55;;;20.77;;
38972;SDS011;25333;50.762;4.470;2024-03-07T13:13:10;28.15;;;18.95;;
38972;SDS011;25333;50.762;4.470;2024-03-07T13:15:39;27.25;;;17.92;;
38972;SDS011;25333;50.762;4.470;2024-03-07T13:18:07;21.45;;;16.20;;
38972;SDS011;25333;50.762;4.470;2024-03-07T13:20:34;27.20;;;18.83;;
38972;SDS011;25333;50.762;4.470;2024-03-07T13:23:00;25.40;;;17.87;;
38972;SDS011;25333;50.762;4.470;2024-03-07T13:25:26;28.60;;;18.55;;
38972;SDS011;25333;50.762;4.470;2024-03-07T13:28:09;24.98;;;17.80;;
38972;SDS011;25333;50.762;4.470;2024-03-07T13:30:42;26.75;;;19.05;;
38972;SDS011;25333;50.762;4.470;2024-03-07T13:33:08;23.83;;;17.98;;
38972;SDS011;25333;50.762;4.470;2024-03-07T13:35:38;30.48;;;20.70;;
38972;SDS011;25333;50.762;4.470;2024-03-07T13:38:04;26.40;;;17.77;;
38972;SDS011;25333;50.762;4.470;2024-03-07T13:40:31;23.40;;;17.70;;
38972;SDS011;25333;50.762;4.470;2024-03-07T13:43:00;22.17;;;16.17;;
38972;SDS011;25333;50.762;4.470;2024-03-07T13:45:29;20.75;;;15.00;;
38972;SDS011;25333;50.762;4.470;2024-03-07T13:47:57;28.67;;;19.10;;
38972;SDS011;25333;50.762;4.470;2024-03-07T13:50:27;24.48;;;17.08;;
38972;SDS011;25333;50.762;4.470;2024-03-07T13:52:54;24.05;;;17.33;;
38972;SDS011;25333;50.762;4.470;2024-03-07T13:55:41;25.27;;;19.45;;
38972;SDS011;25333;50.762;4.470;2024-03-07T14:32:46;25.90;;;16.08;;
38972;SDS011;25333;50.762;4.470;2024-03-07T14:35:59;20.25;;;14.20;;
38972;SDS011;25333;50.762;4.470;2024-03-07T14:38:27;21.92;;;14.98;;
38972;SDS011;25333;50.762;4.470;2024-03-07T14:41:05;18.60;;;13.90;;
38972;SDS011;25333;50.762;4.470;2024-03-07T14:43:33;22.73;;;15.55;;
38972;SDS011;25333;50.762;4.470;2024-03-07T14:45:59;19.55;;;13.43;;
38972;SDS011;25333;50.762;4.470;2024-03-07T14:48:34;22.20;;;14.17;;
38972;SDS011;25333;50.762;4.470;2024-03-07T14:51:01;20.38;;;14.75;;
38972;SDS011;25333;50.762;4.470;2024-03-07T14:53:28;22.38;;;15.07;;
38972;SDS011;25333;50.762;4.470;2024-03-07T14:55:59;19.20;;;14.87;;
38972;SDS011;25333;50.762;4.470;2024-03-07T14:58:26;22.35;;;13.68;;
38972;SDS011;25333;50.762;4.470;2024-03-07T15:00:54;20.83;;;14.90;;
38972;SDS011;25333;50.762;4.470;2024-03-07T15:03:20;18.40;;;13.75;;
38972;SDS011;25333;50.762;4.470;2024-03-07T15:05:46;21.20;;;15.47;;
38972;SDS011;25333;50.762;4.470;2024-03-07T15:08:17;21.38;;;14.38;;
38972;SDS011;25333;50.762;4.470;2024-03-07T15:10:50;20.90;;;14.13;;
38972;SDS011;25333;50.762;4.470;2024-03-07T15:13:21;19.42;;;13.85;;
38972;SDS011;25333;50.762;4.470;2024-03-07T15:15:47;20.65;;;14.27;;
38972;SDS011;25333;50.762;4.470;2024-03-07T15:18:13;19.98;;;13.63;;
38972;SDS011;25333;50.762;4.470;2024-03-07T15:20:39;19.40;;;14.00;;
38972;SDS011;25333;50.762;4.470;2024-03-07T15:23:06;20.13;;;12.77;;
38972;SDS011;25333;50.762;4.470;2024-03-07T15:25:32;21.77;;;13.17;;
38972;SDS011;25333;50.762;4.470;2024-03-07T15:28:02;22.88;;;13.73;;
38972;SDS011;25333;50.762;4.470;2024-03-07T15:30:28;23.45;;;13.85;;
38972;SDS011;25333;50.762;4.470;2024-03-07T15:32:59;20.45;;;13.70;;
38972;SDS011;25333;50.762;4.470;2024-03-07T15:35:29;21.80;;;14.02;;
38972;SDS011;25333;50.762;4.470;2024-03-07T15:37:56;21.95;;;14.40;;
38972;SDS011;25333;50.762;4.470;2024-03-07T15:40:22;23.23;;;15.25;;
38972;SDS011;25333;50.762;4.470;2024-03-07T15:42:49;23.85;;;14.70;;
38972;SDS011;25333;50.762;4.470;2024-03-07T15:45:19;23.77;;;15.63;;
38972;SDS011;25333;50.762;4.470;2024-03-07T15:47:50;24.43;;;15.13;;
38972;SDS011;25333;50.762;4.470;2024-03-07T15:50:19;22.70;;;15.93;;
38972;SDS011;25333;50.762;4.470;2024-03-07T15:52:47;20.75;;;14.52;;
38972;SDS011;25333;50.762;4.470;2024-03-07T15:55:16;20.60;;;14.50;;
38972;SDS011;25333;50.762;4.470;2024-03-07T15:57:47;18.63;;;13.48;;
38972;SDS011;25333;50.762;4.470;2024-03-07T16:00:15;20.48;;;13.95;;
38972;SDS011;25333;50.762;4.470;2024-03-07T16:02:54;19.92;;;12.70;;
38972;SDS011;25333;50.762;4.470;2024-03-07T16:05:21;19.35;;;12.88;;
38972;SDS011;25333;50.762;4.470;2024-03-07T16:07:54;17.88;;;12.65;;
38972;SDS011;25333;50.762;4.470;2024-03-07T16:10:21;20.38;;;13.65;;
38972;SDS011;25333;50.762;4.470;2024-03-07T16:12:54;22.83;;;12.85;;
38972;SDS011;25333;50.762;4.470;2024-03-07T16:15:20;14.75;;;11.20;;
38972;SDS011;25333;50.762;4.470;2024-03-07T16:17:48;17.90;;;13.20;;
38972;SDS011;25333;50.762;4.470;2024-03-07T16:20:14;19.10;;;11.77;;
38972;SDS011;25333;50.762;4.470;2024-03-07T16:22:43;20.80;;;12.65;;
38972;SDS011;25333;50.762;4.470;2024-03-07T16:25:10;21.33;;;12.55;;
38972;SDS011;25333;50.762;4.470;2024-03-07T16:27:40;21.95;;;14.20;;
38972;SDS011;25333;50.762;4.470;2024-03-07T16:30:09;16.67;;;11.63;;
38972;SDS011;25333;50.762;4.470;2024-03-07T16:32:36;15.23;;;11.82;;
38972;SDS011;25333;50.762;4.470;2024-03-07T16:35:03;19.83;;;12.00;;
38972;SDS011;25333;50.762;4.470;2024-03-07T16:37:34;17.58;;;13.18;;
38972;SDS011;25333;50.762;4.470;2024-03-07T16:40:04;17.85;;;11.77;;
38972;SDS011;25333;50.762;4.470;2024-03-07T16:42:31;18.10;;;12.30;;
38972;SDS011;25333;50.762;4.470;2024-03-07T16:44:57;22.35;;;12.63;;
38972;SDS011;25333;50.762;4.470;2024-03-07T16:47:23;17.08;;;10.93;;
38972;SDS011;25333;50.762;4.470;2024-03-07T16:49:49;19.85;;;11.90;;
38972;SDS011;25333;50.762;4.470;2024-03-07T16:52:17;16.80;;;10.90;;
38972;SDS011;25333;50.762;4.470;2024-03-07T16:54:43;18.27;;;11.90;;
38972;SDS011;25333;50.762;4.470;2024-03-07T16:57:09;18.00;;;11.33;;
38972;SDS011;25333;50.762;4.470;2024-03-07T16:59:38;17.33;;;11.50;;
38972;SDS011;25333;50.762;4.470;2024-03-07T17:02:03;19.20;;;12.15;;
38972;SDS011;25333;50.762;4.470;2024-03-07T17:04:32;15.95;;;11.35;;
38972;SDS011;25333;50.762;4.470;2024-03-07T17:06:58;18.35;;;12.38;;
38972;SDS011;25333;50.762;4.470;2024-03-07T17:09:24;16.97;;;11.30;;
38972;SDS011;25333;50.762;4.470;2024-03-07T17:11:49;15.98;;;11.48;;
38972;SDS011;25333;50.762;4.470;2024-03-07T17:14:15;16.43;;;12.00;;
38972;SDS011;25333;50.762;4.470;2024-03-07T17:16:41;15.98;;;11.23;;
38972;SDS011;25333;50.762;4.470;2024-03-07T17:19:08;16.40;;;10.68;;
38972;SDS011;25333;50.762;4.470;2024-03-07T17:21:38;15.98;;;9.98;;
38972;SDS011;25333;50.762;4.470;2024-03-07T17:24:04;15.60;;;10.18;;
38972;SDS011;25333;50.762;4.470;2024-03-07T17:26:33;15.02;;;9.88;;
38972;SDS011;25333;50.762;4.470;2024-03-07T17:28:59;13.60;;;10.23;;
38972;SDS011;25333;50.762;4.470;2024-03-07T17:31:25;19.52;;;11.68;;
38972;SDS011;25333;50.762;4.470;2024-03-07T17:33:51;14.25;;;9.88;;
38972;SDS011;25333;50.762;4.470;2024-03-07T17:36:18;15.63;;;10.10;;
38972;SDS011;25333;50.762;4.470;2024-03-07T17:39:09;16.92;;;10.52;;
38972;SDS011;25333;50.762;4.470;2024-03-07T17:41:39;15.32;;;10.30;;
38972;SDS011;25333;50.762;4.470;2024-03-07T17:44:06;15.57;;;10.25;;
38972;SDS011;25333;50.762;4.470;2024-03-07T17:46:43;15.00;;;8.55;;
38972;SDS011;25333;50.762;4.470;2024-03-07T17:49:17;13.68;;;9.60;;
38972;SDS011;25333;50.762;4.470;2024-03-07T17:51:44;16.30;;;10.00;;
38972;SDS011;25333;50.762;4.470;2024-03-07T17:54:10;16.80;;;11.35;;
38972;SDS011;25333;50.762;4.470;2024-03-07T17:56:37;15.18;;;9.32;;
38972;SDS011;25333;50.762;4.470;2024-03-07T17:59:03;12.73;;;9.15;;
38972;SDS011;25333;50.762;4.470;2024-03-07T18:01:30;16.77;;;9.05;;
38972;SDS011;25333;50.762;4.470;2024-03-07T18:03:56;13.07;;;8.57;;
38972;SDS011;25333;50.762;4.470;2024-03-07T18:06:25;14.13;;;9.88;;
38972;SDS011;25333;50.762;4.470;2024-03-07T18:08:53;12.98;;;8.15;;
38972;SDS011;25333;50.762;4.470;2024-03-07T18:11:19;12.90;;;8.57;;
38972;SDS011;25333;50.762;4.470;2024-03-07T18:13:45;12.48;;;8.82;;
38972;SDS011;25333;50.762;4.470;2024-03-07T18:16:15;16.17;;;8.90;;
38972;SDS011;25333;50.762;4.470;2024-03-07T18:18:42;13.23;;;9.15;;
38972;SDS011;25333;50.762;4.470;2024-03-07T18:21:10;16.75;;;7.63;;
38972;SDS011;25333;50.762;4.470;2024-03-07T18:23:39;14.15;;;8.43;;
38972;SDS011;25333;50.762;4.470;2024-03-07T18:26:04;13.13;;;8.80;;
38972;SDS011;25333;50.762;4.470;2024-03-07T18:28:33;11.15;;;6.90;;
38972;SDS011;25333;50.762;4.470;2024-03-07T18:31:03;12.68;;;8.85;;
38972;SDS011;25333;50.762;4.470;2024-03-07T18:33:37;12.27;;;7.22;;
38972;SDS011;25333;50.762;4.470;2024-03-07T18:36:07;12.67;;;7.50;;
38972;SDS011;25333;50.762;4.470;2024-03-07T18:38:37;13.07;;;8.65;;
38972;SDS011;25333;50.762;4.470;2024-03-07T18:41:04;10.23;;;7.05;;
38972;SDS011;25333;50.762;4.470;2024-03-07T18:43:31;12.35;;;7.53;;
38972;SDS011;25333;50.762;4.470;2024-03-07T18:45:57;11.10;;;7.50;;
38972;SDS011;25333;50.762;4.470;2024-03-07T18:48:23;12.27;;;8.02;;
38972;SDS011;25333;50.762;4.470;2024-03-07T18:50:50;11.80;;;8.45;;
38972;SDS011;25333;50.762;4.470;2024-03-07T18:55:41;13.35;;;8.52;;
38972;SDS011;25333;50.762;4.470;2024-03-07T18:58:11;12.25;;;8.05;;
38972;SDS011;25333;50.762;4.470;2024-03-07T19:00:38;13.38;;;8.77;;
38972;SDS011;25333;50.762;4.470;2024-03-07T19:03:07;13.20;;;8.15;;
38972;SDS011;25333;50.762;4.470;2024-03-07T19:05:34;13.02;;;8.93;;
38972;SDS011;25333;50.762;4.470;2024-03-07T19:08:10;14.70;;;9.18;;
38972;SDS011;25333;50.762;4.470;2024-03-07T19:10:46;13.90;;;9.10;;
38972;SDS011;25333;50.762;4.470;2024-03-07T19:13:15;12.23;;;8.48;;
38972;SDS011;25333;50.762;4.470;2024-03-07T19:15:45;17.48;;;9.18;;
38972;SDS011;25333;50.762;4.470;2024-03-07T19:18:17;15.50;;;8.85;;
38972;SDS011;25333;50.762;4.470;2024-03-07T19:20:43;12.00;;;7.95;;
38972;SDS011;25333;50.762;4.470;2024-03-07T19:23:11;12.52;;;8.30;;
38972;SDS011;25333;50.762;4.470;2024-03-07T19:25:37;13.50;;;9.13;;
38972;SDS011;25333;50.762;4.470;2024-03-07T19:28:07;13.32;;;8.63;;
38972;SDS011;25333;50.762;4.470;2024-03-07T19:30:36;13.95;;;9.07;;
38972;SDS011;25333;50.762;4.470;2024-03-07T19:33:05;13.30;;;9.57;;
38972;SDS011;25333;50.762;4.470;2024-03-07T19:35:48;16.63;;;10.25;;
38972;SDS011;25333;50.762;4.470;2024-03-07T19:38:33;12.45;;;8.68;;
38972;SDS011;25333;50.762;4.470;2024-03-07T19:40:59;11.73;;;8.98;;
38972;SDS011;25333;50.762;4.470;2024-03-07T19:43:26;13.20;;;9.05;;
38972;SDS011;25333;50.762;4.470;2024-03-07T19:45:52;13.13;;;8.95;;
38972;SDS011;25333;50.762;4.470;2024-03-07T19:48:20;15.90;;;9.70;;
38972;SDS011;25333;50.762;4.470;2024-03-07T19:50:47;14.83;;;9.23;;
38972;SDS011;25333;50.762;4.470;2024-03-07T19:53:14;16.10;;;10.27;;
38972;SDS011;25333;50.762;4.470;2024-03-07T19:55:43;12.27;;;8.82;;
38972;SDS011;25333;50.762;4.470;2024-03-07T19:58:10;14.68;;;9.18;;
38972;SDS011;25333;50.762;4.470;2024-03-07T20:00:38;13.35;;;10.02;;
38972;SDS011;25333;50.762;4.470;2024-03-07T20:03:05;14.13;;;8.70;;
38972;SDS011;25333;50.762;4.470;2024-03-07T20:05:34;14.35;;;9.25;;
38972;SDS011;25333;50.762;4.470;2024-03-07T20:07:59;15.38;;;10.10;;
38972;SDS011;25333;50.762;4.470;2024-03-07T20:10:26;16.98;;;9.63;;
38972;SDS011;25333;50.762;4.470;2024-03-07T20:12:54;13.37;;;10.07;;
38972;SDS011;25333;50.762;4.470;2024-03-07T20:15:21;16.70;;;10.23;;
38972;SDS011;25333;50.762;4.470;2024-03-07T20:17:48;16.60;;;10.02;;
38972;SDS011;25333;50.762;4.470;2024-03-07T20:20:15;16.30;;;9.68;;
38972;SDS011;25333;50.762;4.470;2024-03-07T20:22:42;13.93;;;9.23;;
38972;SDS011;25333;50.762;4.470;2024-03-07T20:25:09;14.02;;;10.20;;
38972;SDS011;25333;50.762;4.470;2024-03-07T20:27:41;14.43;;;9.43;;
38972;SDS011;25333;50.762;4.470;2024-03-07T20:30:08;15.18;;;10.18;;
38972;SDS011;25333;50.762;4.470;2024-03-07T20:32:35;12.60;;;9.55;;
38972;SDS011;25333;50.762;4.470;2024-03-07T20:35:01;13.63;;;9.63;;
38972;SDS011;25333;50.762;4.470;2024-03-07T20:37:33;14.88;;;10.30;;
38972;SDS011;25333;50.762;4.470;2024-03-07T20:40:01;18.20;;;11.10;;
38972;SDS011;25333;50.762;4.470;2024-03-07T20:42:38;16.40;;;9.65;;
38972;SDS011;25333;50.762;4.470;2024-03-07T20:45:07;14.55;;;11.57;;
38972;SDS011;25333;50.762;4.470;2024-03-07T20:47:34;17.08;;;11.18;;
38972;SDS011;25333;50.762;4.470;2024-03-07T20:50:01;17.13;;;10.95;;
38972;SDS011;25333;50.762;4.470;2024-03-07T20:52:30;16.25;;;10.93;;